createdAt,value
2022-10-06T00:01:39.908Z,98995.72
2022-10-06T00:04:08.315Z,98996.78
2022-10-06T00:06:36.588Z,98990.81
2022-10-06T00:09:05.647Z,99002.19
2022-10-06T00:11:34.346Z,99002.25
2022-10-06T00:14:02.710Z,99004.69
2022-10-06T00:16:31.021Z,99003.38
2022-10-06T00:19:00.670Z,99002.66
2022-10-06T00:21:29.133Z,99007.94
2022-10-06T00:23:57.946Z,99014.03
2022-10-06T00:26:27.187Z,99021.19
2022-10-06T00:28:55.519Z,99020.25
2022-10-06T00:31:24.036Z,99018.78
2022-10-06T00:33:52.429Z,99018.78
2022-10-06T00:36:23.272Z,99018.78
2022-10-06T00:38:51.955Z,99018.94
2022-10-06T00:41:20.263Z,99032.91
2022-10-06T00:43:52.788Z,99035.81
2022-10-06T00:46:36.527Z,99035.31
2022-10-06T00:49:13.492Z,99038.41
2022-10-06T00:51:47.301Z,99039.41
2022-10-06T00:54:16.430Z,99039.50
2022-10-06T00:56:46.016Z,99043.84
2022-10-06T00:59:16.419Z,99047.56
2022-10-06T01:01:51.041Z,99050.25
2022-10-06T01:04:20.028Z,99050.25
2022-10-06T01:06:54.008Z,99052.97
2022-10-06T01:09:23.961Z,99046.06
2022-10-06T01:11:55.390Z,99052.13
2022-10-06T01:14:26.203Z,99047.94
2022-10-06T01:17:00.857Z,99056.88
2022-10-06T01:19:37.513Z,99057.06
2022-10-06T01:22:08.901Z,99057.22
2022-10-06T01:24:38.777Z,99057.63
2022-10-06T01:27:09.011Z,99066.25
2022-10-06T01:29:38.303Z,99063.00
2022-10-06T01:32:06.901Z,99064.84
2022-10-06T01:34:35.278Z,99068.56
2022-10-06T01:37:03.576Z,99075.25
2022-10-06T01:39:31.949Z,99073.88
2022-10-06T01:42:01.768Z,99075.91
2022-10-06T01:44:30.329Z,99073.31
2022-10-06T01:46:58.692Z,99080.53
2022-10-06T01:49:26.877Z,99078.03
2022-10-06T01:51:55.345Z,99079.88
2022-10-06T01:54:23.845Z,99087.94
2022-10-06T01:56:52.145Z,99091.53
2022-10-06T01:59:24.592Z,99085.50
2022-10-06T02:01:53.796Z,99089.16
2022-10-06T02:04:22.316Z,99097.84
2022-10-06T02:06:51.570Z,99094.41
2022-10-06T02:09:19.997Z,99084.28
2022-10-06T02:11:48.286Z,99085.41
2022-10-06T02:14:18.092Z,99093.38
2022-10-06T02:16:47.784Z,99096.06
2022-10-06T02:19:16.261Z,99096.91
2022-10-06T02:21:44.702Z,99089.25
2022-10-06T02:24:13.027Z,99101.53
2022-10-06T02:26:41.364Z,99106.06
2022-10-06T02:29:09.892Z,99107.84
2022-10-06T02:31:38.293Z,99107.84
2022-10-06T02:34:07.992Z,99113.38
2022-10-06T02:36:36.519Z,99119.75
2022-10-06T02:39:06.404Z,99129.28
2022-10-06T02:41:34.650Z,99129.50
2022-10-06T02:44:05.221Z,99131.84
2022-10-06T02:46:33.862Z,99137.50
2022-10-06T02:49:02.810Z,99151.56
2022-10-06T02:51:32.782Z,99153.91
2022-10-06T02:54:02.013Z,99151.66
2022-10-06T02:56:30.231Z,99157.78
2022-10-06T02:58:58.628Z,99155.34
2022-10-06T03:01:33.254Z,99155.25
2022-10-06T03:04:09.247Z,99166.63
2022-10-06T03:06:39.091Z,99164.28
2022-10-06T03:09:39.751Z,99170.69
2022-10-06T03:12:10.192Z,99168.34
2022-10-06T03:14:44.849Z,99181.31
2022-10-06T03:17:13.521Z,99189.28
2022-10-06T03:19:48.452Z,99189.28
2022-10-06T03:22:18.178Z,99191.72
2022-10-06T03:24:53.563Z,99197.66
2022-10-06T03:27:23.032Z,99209.06
2022-10-06T03:29:54.205Z,99216.06
2022-10-06T03:32:25.171Z,99219.50
2022-10-06T03:34:54.300Z,99216.06
2022-10-06T03:37:24.217Z,99219.59
2022-10-06T03:39:52.922Z,99219.59
2022-10-06T03:42:21.562Z,99222.94
2022-10-06T03:44:50.221Z,99224.69
2022-10-06T03:47:19.177Z,99241.22
2022-10-06T03:49:48.231Z,99246.41
2022-10-06T03:52:21.177Z,99248.41
2022-10-06T03:54:53.350Z,99262.47
2022-10-06T03:57:23.193Z,99260.72
2022-10-06T03:59:51.799Z,99271.78
2022-10-06T04:02:20.315Z,99269.34
2022-10-06T04:04:48.771Z,99267.81
2022-10-06T04:07:17.024Z,99271.50
2022-10-06T04:09:46.968Z,99277.38
2022-10-06T04:12:18.379Z,99276.69
2022-10-06T04:14:46.731Z,99276.69
2022-10-06T04:17:15.273Z,99273.06
2022-10-06T04:19:43.685Z,99269.59
2022-10-06T04:22:11.959Z,99288.44
2022-10-06T04:24:40.842Z,99282.47
2022-10-06T04:27:26.572Z,99297.97
2022-10-06T04:30:15.754Z,99289.34
2022-10-06T04:32:45.729Z,99292.25
2022-10-06T04:35:15.385Z,99294.09
2022-10-06T04:37:43.973Z,99298.53
2022-10-06T04:40:12.648Z,99301.88
2022-10-06T04:42:41.263Z,99295.75
2022-10-06T04:45:15.034Z,99292.25
2022-10-06T04:47:44.334Z,99302.50
2022-10-06T04:50:13.425Z,99307.47
2022-10-06T04:53:01.537Z,99308.53
2022-10-06T04:55:29.889Z,99307.84
2022-10-06T04:57:58.539Z,99311.50
2022-10-06T05:00:28.631Z,99310.72
2022-10-06T05:02:58.174Z,99315.19
2022-10-06T05:05:26.604Z,99323.72
2022-10-06T05:07:56.742Z,99331.59
2022-10-06T05:10:25.967Z,99334.25
2022-10-06T05:12:54.922Z,99333.19
2022-10-06T05:15:29.135Z,99336.44
2022-10-06T05:17:59.047Z,99342.84
2022-10-06T05:20:27.422Z,99333.50
2022-10-06T05:22:55.926Z,99345.59
2022-10-06T05:25:27.257Z,99346.44
2022-10-06T05:27:55.638Z,99346.66
2022-10-06T05:30:23.960Z,99359.41
2022-10-06T05:32:52.661Z,99362.00
2022-10-06T05:35:22.683Z,99363.53
2022-10-06T05:37:51.233Z,99364.28
2022-10-06T05:40:19.828Z,99368.44
2022-10-06T05:42:48.619Z,99376.00
2022-10-06T05:45:17.808Z,99378.38
2022-10-06T05:47:46.240Z,99368.81
2022-10-06T05:50:15.942Z,99379.22
2022-10-06T05:52:45.537Z,99380.88
2022-10-06T05:55:14.209Z,99381.72
2022-10-06T05:57:42.831Z,99391.97
2022-10-06T06:00:12.505Z,99392.09
2022-10-06T06:02:46.250Z,99393.63
2022-10-06T06:05:15.826Z,99398.78
2022-10-06T06:07:45.591Z,99407.31
2022-10-06T06:10:14.077Z,99413.13
2022-10-06T06:12:42.462Z,99404.50
2022-10-06T06:15:48.762Z,99412.34
2022-10-06T06:18:17.207Z,99414.97
2022-10-06T06:20:46.003Z,99422.81
2022-10-06T06:23:15.702Z,99421.28
2022-10-06T06:25:44.181Z,99427.31
2022-10-06T06:28:13.043Z,99434.31
2022-10-06T06:30:41.508Z,99433.44
2022-10-06T06:33:10.811Z,99437.75
2022-10-06T06:35:39.220Z,99438.69
2022-10-06T06:38:11.771Z,99439.69
2022-10-06T06:40:42.991Z,99443.16
2022-10-06T06:43:13.448Z,99450.34
2022-10-06T06:46:04.240Z,99455.31
2022-10-06T06:48:56.869Z,99460.88
2022-10-06T06:51:25.478Z,99471.09
2022-10-06T06:53:54.717Z,99464.94
2022-10-06T06:56:24.448Z,99480.91
2022-10-06T06:58:52.763Z,99474.88
2022-10-06T07:01:24.378Z,99479.09
2022-10-06T07:03:58.078Z,99480.34
2022-10-06T07:06:31.927Z,99486.59
2022-10-06T07:09:03.715Z,99497.16
2022-10-06T07:11:35.436Z,99503.19
2022-10-06T07:14:10.209Z,99504.94
2022-10-06T07:16:56.625Z,99507.44
2022-10-06T07:19:52.572Z,99510.53
2022-10-06T07:22:41.264Z,99512.78
2022-10-06T07:25:25.777Z,99518.56
2022-10-06T07:28:03.991Z,99522.66
2022-10-06T07:30:40.989Z,99532.69
2022-10-06T07:33:14.606Z,99528.03
2022-10-06T07:35:44.942Z,99530.25
2022-10-06T07:38:14.788Z,99532.22
2022-10-06T07:41:14.568Z,99522.25
2022-10-06T07:43:37.955Z,99531.00
2022-10-06T07:46:11.489Z,99527.66
2022-10-06T07:48:44.535Z,99528.34
2022-10-06T07:51:15.910Z,99536.03
2022-10-06T07:53:46.764Z,99533.31
2022-10-06T07:56:21.918Z,99543.38
2022-10-06T07:58:56.020Z,99533.75
2022-10-06T08:01:25.575Z,99543.16
2022-10-06T08:03:54.233Z,99545.84
2022-10-06T08:06:24.537Z,99550.59
2022-10-06T08:08:53.835Z,99548.19
2022-10-06T08:11:23.998Z,99548.97
2022-10-06T08:13:54.183Z,99557.91
2022-10-06T08:16:24.910Z,99564.81
2022-10-06T08:18:55.301Z,99563.78
2022-10-06T08:21:27.088Z,99562.13
2022-10-06T08:23:56.983Z,99567.09
2022-10-06T08:26:27.676Z,99566.84
2022-10-06T08:29:03.361Z,99579.81
2022-10-06T08:31:33.102Z,99582.47
2022-10-06T08:34:01.511Z,99589.81
2022-10-06T08:36:32.454Z,99585.94
2022-10-06T08:39:01.818Z,99583.25
2022-10-06T08:41:40.283Z,99590.34
2022-10-06T08:44:25.784Z,99590.66
2022-10-06T08:47:00.438Z,99602.13
2022-10-06T08:49:34.662Z,99596.94
2022-10-06T08:52:20.375Z,99600.91
2022-10-06T08:54:58.867Z,99599.06
2022-10-06T08:57:37.160Z,99606.72
2022-10-06T09:00:18.041Z,99603.03
2022-10-06T09:02:51.794Z,99601.47
2022-10-06T09:05:25.437Z,99600.78
2022-10-06T09:08:19.989Z,99606.56
2022-10-06T09:11:06.491Z,99612.47
2022-10-06T09:13:40.570Z,99621.09
2022-10-06T09:16:15.284Z,99613.31
2022-10-06T09:21:39.781Z,99619.34
2022-10-06T09:24:15.546Z,99622.94
2022-10-06T09:26:46.479Z,99620.78
2022-10-06T09:29:15.223Z,99626.13
2022-10-06T09:31:50.998Z,99620.94
2022-10-06T09:34:28.444Z,99620.94
2022-10-06T09:37:03.207Z,99626.91
2022-10-06T09:39:36.545Z,99617.19
2022-10-06T09:42:13.395Z,99621.69
2022-10-06T09:44:55.155Z,99628.69
2022-10-06T09:47:40.337Z,99636.91
2022-10-06T09:50:23.901Z,99634.84
2022-10-06T09:53:12.302Z,99641.72
2022-10-06T09:55:52.140Z,99641.88
2022-10-06T09:58:25.133Z,99645.56
2022-10-06T10:00:56.431Z,99645.09
2022-10-06T10:03:27.905Z,99644.75
2022-10-06T10:05:56.746Z,99646.47
2022-10-06T10:08:27.786Z,99653.19
2022-10-06T10:11:38.367Z,99656.28
2022-10-06T10:14:18.064Z,99647.50
2022-10-06T10:16:52.352Z,99646.56
2022-10-06T10:19:32.734Z,99641.19
2022-10-06T10:22:01.044Z,99640.44
2022-10-06T10:24:48.418Z,99643.47
2022-10-06T10:27:23.883Z,99645.00
2022-10-06T10:30:03.300Z,99639.13
2022-10-06T10:32:57.082Z,99639.38
2022-10-06T10:35:31.895Z,99640.09
2022-10-06T10:38:03.012Z,99639.78
2022-10-06T10:40:37.368Z,99636.00
2022-10-06T10:43:22.546Z,99639.38
2022-10-06T10:45:56.366Z,99627.69
2022-10-06T10:48:33.122Z,99628.81
2022-10-06T10:51:08.673Z,99623.13
2022-10-06T10:53:47.306Z,99625.13
2022-10-06T10:56:18.010Z,99630.00
2022-10-06T10:58:50.468Z,99623.63
2022-10-06T11:01:32.324Z,99627.00
2022-10-06T11:04:02.261Z,99629.69
2022-10-06T11:07:02.537Z,99622.91
2022-10-06T11:09:40.004Z,99622.44
2022-10-06T11:12:21.012Z,99619.06
2022-10-06T11:14:59.549Z,99627.50
2022-10-06T11:17:50.448Z,99625.63
2022-10-06T11:20:41.685Z,99621.25
2022-10-06T11:23:41.919Z,99628.63
2022-10-06T11:26:38.180Z,99628.13
2022-10-06T11:29:22.227Z,99619.38
2022-10-06T11:32:06.208Z,99613.16
2022-10-06T11:34:34.684Z,99615.53
2022-10-06T11:37:17.309Z,99616.19
2022-10-06T11:39:55.274Z,99610.81
2022-10-06T11:42:30.824Z,99606.31
2022-10-06T11:45:04.895Z,99610.88
2022-10-06T11:47:40.009Z,99609.81
2022-10-06T11:50:34.232Z,99598.53
2022-10-06T11:53:02.791Z,99595.19
2022-10-06T11:55:32.989Z,99602.69
2022-10-06T12:01:03.109Z,99594.25
2022-10-06T12:04:09.841Z,99596.50
2022-10-06T12:07:03.986Z,99593.94
2022-10-06T12:09:54.797Z,99589.81
2022-10-06T12:13:06.585Z,99596.91
2022-10-06T12:19:00.006Z,99593.53
2022-10-06T12:21:47.113Z,99591.69
2022-10-06T12:24:36.851Z,99588.31
2022-10-06T12:27:39.583Z,99587.66
2022-10-06T12:30:22.671Z,99588.13
2022-10-06T12:32:54.729Z,99583.81
2022-10-06T12:35:33.369Z,99584.03
2022-10-06T12:38:05.429Z,99578.97
2022-10-06T12:40:54.378Z,99579.44
2022-10-06T12:43:36.276Z,99578.22
2022-10-06T12:46:16.320Z,99578.41
2022-10-06T12:48:56.872Z,99578.59
2022-10-06T12:51:34.955Z,99573.81
2022-10-06T12:54:15.209Z,99572.59
2022-10-06T12:56:45.051Z,99575.47
2022-10-06T12:59:24.296Z,99577.19
2022-10-06T13:01:57.729Z,99580.34
2022-10-06T13:04:36.088Z,99569.69
2022-10-06T13:07:12.443Z,99565.59
2022-10-06T13:09:40.773Z,99566.63
2022-10-06T13:12:25.698Z,99563.28
2022-10-06T13:15:19.404Z,99559.53
2022-10-06T13:17:52.552Z,99559.72
2022-10-06T13:20:39.225Z,99560.84
2022-10-06T13:23:25.175Z,99566.28
2022-10-06T13:25:59.763Z,99563.28
2022-10-06T13:28:31.360Z,99572.88
2022-10-06T13:33:43.631Z,99571.13
2022-10-06T13:36:13.416Z,99553.66
2022-10-06T13:38:43.078Z,99563.72
2022-10-06T13:41:24.713Z,99557.34
2022-10-06T13:43:57.256Z,99561.59
2022-10-06T13:46:29.513Z,99555.16
2022-10-06T13:49:04.255Z,99554.16
2022-10-06T13:51:33.650Z,99546.00
2022-10-06T13:54:08.073Z,99548.97
2022-10-06T13:56:39.581Z,99557.03
2022-10-06T13:59:33.983Z,99546.53
2022-10-06T14:02:22.430Z,99549.44
2022-10-06T14:05:29.337Z,99553.25
2022-10-06T14:08:01.821Z,99544.28
2022-10-06T14:10:35.872Z,99544.09
2022-10-06T14:13:09.483Z,99543.56
2022-10-06T14:15:47.843Z,99540.25
2022-10-06T14:18:24.232Z,99532.41
2022-10-06T14:20:55.504Z,99538.16
2022-10-06T14:23:45.140Z,99540.09
2022-10-06T14:26:15.425Z,99539.00
2022-10-06T14:28:49.415Z,99528.63
2022-10-06T14:31:17.953Z,99534.09
2022-10-06T14:33:47.989Z,99527.75
2022-10-06T14:36:22.213Z,99518.75
2022-10-06T14:38:52.852Z,99521.28
2022-10-06T14:41:24.807Z,99526.63
2022-10-06T14:43:57.563Z,99513.00
2022-10-06T14:46:26.772Z,99516.31
2022-10-06T14:48:55.673Z,99513.00
2022-10-06T14:51:27.057Z,99509.63
2022-10-06T14:53:58.180Z,99516.31
2022-10-06T14:56:29.083Z,99513.63
2022-10-06T14:58:59.941Z,99519.25
2022-10-06T15:01:29.886Z,99511.22
2022-10-06T15:04:00.903Z,99513.00
2022-10-06T15:06:48.324Z,99511.09
2022-10-06T15:09:16.644Z,99513.97
2022-10-06T15:11:45.288Z,99508.72
2022-10-06T15:14:13.862Z,99510.28
2022-10-06T15:16:44.400Z,99509.97
2022-10-06T15:19:13.632Z,99513.44
2022-10-06T15:21:45.973Z,99507.72
2022-10-06T15:24:17.886Z,99513.31
2022-10-06T15:27:05.751Z,99507.22
2022-10-06T15:29:35.600Z,99504.50
2022-10-06T15:32:06.477Z,99492.41
2022-10-06T15:34:37.582Z,99499.84
2022-10-06T15:37:07.711Z,99497.91
2022-10-06T15:39:37.986Z,99498.38
2022-10-06T15:42:08.647Z,99495.50
2022-10-06T15:44:37.941Z,99500.16
2022-10-06T15:47:07.677Z,99502.56
2022-10-06T15:49:40.626Z,99503.91
2022-10-06T15:52:13.003Z,99500.69
2022-10-06T15:54:45.938Z,99494.59
2022-10-06T15:57:20.295Z,99497.06
2022-10-06T15:59:49.676Z,99496.13
2022-10-06T16:02:19.992Z,99498.53
2022-10-06T16:05:16.711Z,99506.53
2022-10-06T16:07:46.329Z,99495.91
2022-10-06T16:10:14.828Z,99494.22
2022-10-06T16:12:43.111Z,99495.63
2022-10-06T16:15:12.000Z,99485.34
2022-10-06T16:17:40.352Z,99491.78
2022-10-06T16:20:11.425Z,99492.28
2022-10-06T16:22:40.037Z,99492.97
2022-10-06T16:25:10.704Z,99500.59
2022-10-06T16:27:39.498Z,99499.66
2022-10-06T16:30:09.969Z,99497.00
2022-10-06T16:32:38.527Z,99503.78
2022-10-06T16:35:08.526Z,99506.72
2022-10-06T16:37:36.927Z,99509.81
2022-10-06T16:40:06.212Z,99506.28
2022-10-06T16:42:36.159Z,99501.47
2022-10-06T16:45:05.457Z,99504.06
2022-10-06T16:47:33.740Z,99512.59
2022-10-06T16:50:02.054Z,99512.22
2022-10-06T16:52:30.586Z,99516.22
2022-10-06T16:54:59.376Z,99512.47
2022-10-06T16:57:27.642Z,99509.44
2022-10-06T16:59:57.239Z,99510.88
2022-10-06T17:02:25.549Z,99507.91
2022-10-06T17:04:53.914Z,99512.78
2022-10-06T17:07:22.274Z,99514.03
2022-10-06T17:10:15.283Z,99516.13
2022-10-06T17:12:39.137Z,99513.00
2022-10-06T17:15:10.375Z,99521.06
2022-10-06T17:17:38.952Z,99517.94
2022-10-06T17:20:08.169Z,99511.44
2022-10-06T17:22:36.843Z,99510.91
2022-10-06T17:25:06.099Z,99517.41
2022-10-06T17:27:39.627Z,99524.13
2022-10-06T17:30:15.384Z,99525.28
2022-10-06T17:32:44.483Z,99523.50
2022-10-06T17:35:12.800Z,99523.88
2022-10-06T17:37:41.203Z,99521.47
2022-10-06T17:40:10.028Z,99525.34
2022-10-06T17:42:38.737Z,99531.63
2022-10-06T17:45:08.520Z,99516.03
2022-10-06T17:47:38.712Z,99523.69
2022-10-06T17:50:08.497Z,99519.50
2022-10-06T17:52:39.229Z,99518.41
2022-10-06T17:55:08.957Z,99526.59
2022-10-06T17:57:37.304Z,99529.63
2022-10-06T18:00:07.483Z,99529.03
2022-10-06T18:02:41.689Z,99528.41
2022-10-06T18:05:10.764Z,99533.75
2022-10-06T18:07:39.884Z,99529.66
2022-10-06T18:10:26.698Z,99528.19
2022-10-06T18:12:55.141Z,99522.31
2022-10-06T18:15:23.586Z,99519.81
2022-10-06T18:17:53.277Z,99509.75
2022-10-06T18:20:21.874Z,99515.47
2022-10-06T18:22:50.266Z,99522.78
2022-10-06T18:25:21.040Z,99524.84
2022-10-06T18:27:53.033Z,99521.38
2022-10-06T18:30:23.739Z,99514.69
2022-10-06T18:36:06.786Z,99536.91
2022-10-06T18:38:37.031Z,99514.81
2022-10-06T18:41:09.038Z,99516.06
2022-10-06T18:43:37.501Z,99525.03
2022-10-06T18:46:25.427Z,99523.63
2022-10-06T18:48:58.647Z,99518.34
2022-10-06T18:51:32.280Z,99516.81
2022-10-06T18:54:03.182Z,99517.22
2022-10-06T18:56:35.053Z,99518.34
2022-10-06T18:59:06.588Z,99513.47
2022-10-06T19:01:35.420Z,99514.69
2022-10-06T19:04:05.567Z,99515.91
2022-10-06T19:06:34.379Z,99510.31
2022-10-06T19:09:04.574Z,99520.22
2022-10-06T19:11:46.239Z,99516.28
2022-10-06T19:14:17.145Z,99515.94
2022-10-06T19:16:46.052Z,99514.53
2022-10-06T19:19:19.254Z,99516.50
2022-10-06T19:21:50.136Z,99515.06
2022-10-06T19:24:21.350Z,99512.66
2022-10-06T19:26:52.311Z,99509.31
2022-10-06T19:29:23.566Z,99515.72
2022-10-06T19:31:55.361Z,99521.31
2022-10-06T19:34:26.607Z,99519.81
2022-10-06T19:36:57.926Z,99520.81
2022-10-06T19:39:30.476Z,99522.78
2022-10-06T19:42:17.298Z,99522.94
2022-10-06T19:44:45.752Z,99530.03
2022-10-06T19:47:16.220Z,99520.72
2022-10-06T19:49:45.942Z,99524.44
2022-10-06T19:52:14.557Z,99529.03
2022-10-06T19:54:43.374Z,99534.44
2022-10-06T19:57:12.343Z,99534.63
2022-10-06T19:59:40.761Z,99524.47
2022-10-06T20:02:10.123Z,99528.25
2022-10-06T20:04:39.727Z,99532.78
2022-10-06T20:07:09.621Z,99524.22
2022-10-06T20:09:37.901Z,99518.34
2022-10-06T20:12:06.796Z,99517.75
2022-10-06T20:14:36.294Z,99518.69
2022-10-06T20:17:04.688Z,99519.06
2022-10-06T20:19:33.153Z,99517.53
2022-10-06T20:22:01.399Z,99521.16
2022-10-06T20:24:31.874Z,99515.16
2022-10-06T20:27:00.161Z,99520.66
2022-10-06T20:29:29.549Z,99522.69
2022-10-06T20:31:59.226Z,99513.34
2022-10-06T20:34:32.129Z,99522.28
2022-10-06T20:37:02.459Z,99519.94
2022-10-06T20:39:51.977Z,99519.94
2022-10-06T20:42:21.554Z,99515.88
2022-10-06T20:44:50.350Z,99512.53
2022-10-06T20:47:18.598Z,99520.50
2022-10-06T20:49:46.856Z,99515.56
2022-10-06T20:52:15.191Z,99515.56
2022-10-06T20:54:45.077Z,99509.66
2022-10-06T20:57:13.526Z,99518.56
2022-10-06T20:59:41.867Z,99513.59
2022-10-06T21:02:11.577Z,99510.25
2022-10-06T21:04:43.378Z,99515.72
2022-10-06T21:07:11.872Z,99514.19
2022-10-06T21:09:40.307Z,99514.31
2022-10-06T21:12:10.050Z,99510.88
2022-10-06T21:14:42.089Z,99510.94
2022-10-06T21:17:10.639Z,99504.91
2022-10-06T21:19:39.276Z,99505.00
2022-10-06T21:22:07.821Z,99499.78
2022-10-06T21:24:36.374Z,99498.28
2022-10-06T21:27:05.142Z,99501.97
2022-10-06T21:29:37.301Z,99495.97
2022-10-06T21:32:05.723Z,99495.41
2022-10-06T21:34:35.166Z,99505.91
2022-10-06T21:37:03.441Z,99491.13
2022-10-06T21:39:31.770Z,99492.91
2022-10-06T21:42:00.216Z,99485.25
2022-10-06T21:44:28.452Z,99487.06
2022-10-06T21:47:02.437Z,99488.16
2022-10-06T21:49:31.143Z,99476.13
2022-10-06T21:52:03.634Z,99473.53
2022-10-06T21:54:32.542Z,99481.53
2022-10-06T21:57:00.978Z,99476.63
2022-10-06T21:59:29.228Z,99477.63
2022-10-06T22:01:59.593Z,99468.25
2022-10-06T22:04:27.956Z,99471.78
2022-10-06T22:06:56.316Z,99472.66
2022-10-06T22:09:24.814Z,99461.41
2022-10-06T22:11:53.199Z,99467.63
2022-10-06T22:14:21.683Z,99460.31
2022-10-06T22:16:50.263Z,99458.94
2022-10-06T22:19:21.604Z,99457.94
2022-10-06T22:21:50.371Z,99459.88
2022-10-06T22:24:21.232Z,99458.34
2022-10-06T22:26:50.759Z,99455.88
2022-10-06T22:29:21.025Z,99454.38
2022-10-06T22:31:49.908Z,99453.63
2022-10-06T22:34:21.273Z,99455.44
2022-10-06T22:36:49.601Z,99453.69
2022-10-06T22:39:18.327Z,99460.78
2022-10-06T22:41:47.214Z,99457.50
2022-10-06T22:44:15.694Z,99456.81
2022-10-06T22:46:44.191Z,99447.50
2022-10-06T22:49:12.495Z,99448.50
2022-10-06T22:51:42.372Z,99448.72
2022-10-06T22:54:19.609Z,99441.00
2022-10-06T22:56:47.995Z,99435.97
2022-10-06T22:59:16.345Z,99431.75
2022-10-06T23:01:44.671Z,99431.91
2022-10-06T23:04:12.987Z,99425.19
2022-10-06T23:06:42.626Z,99418.44
2022-10-06T23:09:10.856Z,99411.56
2022-10-06T23:11:39.163Z,99415.16
2022-10-06T23:14:07.468Z,99417.06
2022-10-06T23:16:35.801Z,99412.94
2022-10-06T23:19:04.298Z,99404.31
2022-10-06T23:21:33.116Z,99401.78
2022-10-06T23:24:02.859Z,99407.16
2022-10-06T23:26:33.609Z,99401.31
2022-10-06T23:29:03.926Z,99393.38
2022-10-06T23:31:32.638Z,99397.03
2022-10-06T23:34:01.540Z,99392.91
2022-10-06T23:36:30.043Z,99385.28
2022-10-06T23:38:58.508Z,99399.31
2022-10-06T23:41:28.149Z,99392.59
2022-10-06T23:43:56.330Z,99392.75
2022-10-06T23:46:24.847Z,99395.34
2022-10-06T23:48:53.063Z,99399.78
2022-10-06T23:51:21.444Z,99394.59
2022-10-06T23:53:49.959Z,99381.66
2022-10-06T23:56:19.015Z,99391.16
2022-10-06T23:58:49.132Z,99383.44
